createdAt,value
2023-05-11T00:00:04.062Z,13.41
2023-05-11T00:01:04.183Z,13.42
2023-05-11T00:02:04.187Z,13.47
2023-05-11T00:03:04.201Z,13.47
2023-05-11T00:04:04.214Z,13.54
2023-05-11T00:05:04.270Z,13.50
2023-05-11T00:06:04.193Z,13.42
2023-05-11T00:07:04.090Z,13.44
2023-05-11T00:08:04.083Z,13.53
2023-05-11T00:09:04.141Z,13.49
2023-05-11T00:10:04.158Z,13.71
2023-05-11T00:11:04.592Z,13.60
2023-05-11T00:12:04.368Z,13.60
2023-05-11T00:13:04.268Z,13.70
2023-05-11T00:14:04.278Z,13.59
2023-05-11T00:15:04.306Z,13.59
2023-05-11T00:16:04.182Z,13.77
2023-05-11T00:17:04.248Z,13.62
2023-05-11T00:18:04.151Z,13.70
2023-05-11T00:19:04.282Z,13.65
2023-05-11T00:20:04.270Z,13.54
2023-05-11T00:21:04.230Z,13.60
2023-05-11T00:22:05.055Z,13.60
2023-05-11T00:23:04.447Z,13.63
2023-05-11T00:24:04.289Z,13.68
2023-05-11T00:25:04.139Z,13.74
2023-05-11T00:26:03.961Z,13.75
2023-05-11T00:27:04.088Z,13.85
2023-05-11T00:28:04.141Z,13.77
2023-05-11T00:29:04.342Z,13.89
2023-05-11T00:30:04.107Z,13.83
2023-05-11T00:31:04.334Z,13.89
2023-05-11T00:32:04.153Z,13.92
2023-05-11T00:33:03.964Z,13.81
2023-05-11T00:34:04.815Z,13.75
2023-05-11T00:35:04.013Z,13.75
2023-05-11T00:36:04.356Z,13.81
2023-05-11T00:37:03.891Z,13.78
2023-05-11T00:38:04.302Z,13.92
2023-05-11T00:39:04.122Z,13.86
2023-05-11T00:40:04.012Z,13.96
2023-05-11T00:41:03.791Z,13.95
2023-05-11T00:42:03.949Z,13.96
2023-05-11T00:43:03.905Z,13.97
2023-05-11T00:44:04.050Z,13.90
2023-05-11T00:45:04.093Z,13.78
2023-05-11T00:46:04.161Z,13.72
2023-05-11T00:47:04.616Z,13.70
2023-05-11T00:48:03.956Z,13.78
2023-05-11T00:49:04.127Z,13.86
2023-05-11T00:50:04.537Z,13.81
2023-05-11T00:51:05.707Z,13.83
2023-05-11T00:52:04.272Z,13.93
2023-05-11T00:53:04.130Z,13.89
2023-05-11T00:54:04.127Z,13.87
2023-05-11T00:55:03.988Z,13.95
2023-05-11T00:56:04.171Z,13.90
2023-05-11T00:57:03.985Z,13.86
2023-05-11T00:58:04.502Z,13.90
2023-05-11T00:59:04.557Z,13.90
2023-05-11T01:00:03.706Z,13.90
2023-05-11T01:01:03.681Z,13.92
2023-05-11T01:02:03.762Z,13.78
2023-05-11T01:03:03.511Z,13.72
2023-05-11T01:04:03.967Z,13.67
2023-05-11T01:05:03.609Z,13.63
2023-05-11T01:06:03.533Z,13.52
2023-05-11T01:07:03.569Z,13.54
2023-05-11T01:08:03.533Z,13.67
2023-05-11T01:09:03.613Z,13.72
2023-05-11T01:10:03.588Z,13.60
2023-05-11T01:11:03.412Z,13.72
2023-05-11T01:12:03.564Z,13.75
2023-05-11T01:13:03.607Z,13.81
2023-05-11T01:14:03.703Z,13.79
2023-05-11T01:15:03.495Z,13.83
2023-05-11T01:16:03.407Z,13.81
2023-05-11T01:17:03.882Z,13.81
2023-05-11T01:18:03.402Z,13.78
2023-05-11T01:19:03.480Z,13.78
2023-05-11T01:20:03.313Z,13.87
2023-05-11T01:21:05.171Z,13.95
2023-05-11T01:22:03.547Z,13.96
2023-05-11T01:23:03.495Z,13.92
2023-05-11T01:24:03.632Z,13.90
2023-05-11T01:25:03.466Z,13.92
2023-05-11T01:26:03.637Z,13.90
2023-05-11T01:27:03.700Z,13.90
2023-05-11T01:28:03.831Z,13.93
2023-05-11T01:29:03.621Z,13.92
2023-05-11T01:30:03.345Z,13.78
2023-05-11T01:31:03.405Z,13.96
2023-05-11T01:32:05.324Z,13.89
2023-05-11T01:33:03.741Z,13.78
2023-05-11T01:34:04.032Z,13.81
2023-05-11T01:35:04.124Z,13.89
2023-05-11T01:36:03.300Z,13.90
2023-05-11T01:37:03.236Z,13.83
2023-05-11T01:38:03.092Z,13.85
2023-05-11T01:39:03.083Z,13.79
2023-05-11T01:40:03.121Z,13.83
2023-05-11T01:41:03.076Z,13.67
2023-05-11T01:42:03.042Z,13.62
2023-05-11T01:43:03.143Z,13.68
2023-05-11T01:44:03.320Z,13.68
2023-05-11T01:45:03.508Z,13.72
2023-05-11T01:46:03.600Z,13.71
2023-05-11T01:47:04.357Z,13.79
2023-05-11T01:48:04.708Z,13.77
2023-05-11T01:49:03.814Z,13.74
2023-05-11T01:50:03.962Z,13.71
2023-05-11T01:51:07.234Z,13.79
2023-05-11T01:52:03.298Z,13.67
2023-05-11T01:53:02.930Z,13.68
2023-05-11T01:54:02.959Z,13.68
2023-05-11T01:55:02.945Z,13.63
2023-05-11T01:56:02.891Z,13.71
2023-05-11T01:57:11.378Z,13.70
2023-05-11T01:58:02.957Z,13.63
2023-05-11T01:59:04.697Z,13.59
2023-05-11T02:00:04.031Z,13.60
2023-05-11T02:01:03.164Z,13.59
2023-05-11T02:02:03.078Z,13.52
2023-05-11T02:03:02.974Z,13.49
2023-05-11T02:04:04.054Z,13.59
2023-05-11T02:05:04.148Z,13.53
2023-05-11T02:06:04.731Z,13.53
2023-05-11T02:07:02.744Z,13.52
2023-05-11T02:08:02.835Z,13.63
2023-05-11T02:09:03.694Z,13.50
2023-05-11T02:10:02.807Z,13.50
2023-05-11T02:11:02.806Z,13.42
2023-05-11T02:12:02.850Z,13.44
2023-05-11T02:13:04.471Z,13.47
2023-05-11T02:14:02.722Z,13.39
2023-05-11T02:15:02.726Z,13.46
2023-05-11T02:16:04.609Z,13.44
2023-05-11T02:17:02.823Z,13.41
2023-05-11T02:18:02.725Z,13.46
2023-05-11T02:19:10.901Z,13.42
2023-05-11T02:20:03.711Z,13.39
2023-05-11T02:21:03.625Z,13.28
2023-05-11T02:22:35.178Z,13.18
2023-05-11T02:23:03.084Z,13.16
2023-05-11T02:26:45.371Z,13.00
2023-05-11T02:27:45.729Z,12.94
2023-05-11T02:28:45.312Z,12.79
2023-05-11T02:29:47.708Z,12.76
2023-05-11T02:30:46.393Z,12.78
2023-05-11T02:31:49.270Z,12.80
2023-05-11T02:32:53.842Z,12.78
2023-05-11T02:34:46.914Z,12.64
2023-05-11T02:36:00.180Z,12.54
2023-05-11T02:36:51.599Z,12.57
2023-05-11T02:37:55.385Z,12.57
2023-05-11T02:38:57.103Z,12.54
2023-05-11T02:39:52.573Z,12.50
2023-05-11T02:41:01.215Z,12.54
2023-05-11T02:42:20.599Z,12.45
2023-05-11T02:43:01.359Z,12.57
2023-05-11T02:43:49.248Z,12.57
2023-05-11T02:45:12.233Z,12.58
2023-05-11T02:45:52.415Z,12.60
2023-05-11T02:46:47.553Z,12.68
2023-05-11T02:47:46.735Z,12.75
2023-05-11T02:48:49.595Z,12.82
2023-05-11T02:50:01.633Z,12.86
2023-05-11T02:50:50.369Z,12.87
2023-05-11T02:51:47.110Z,12.86
2023-05-11T02:52:47.645Z,12.90
2023-05-11T02:53:50.712Z,12.91
2023-05-11T02:54:49.263Z,12.91
2023-05-11T02:55:49.206Z,12.85
2023-05-11T02:56:47.533Z,12.93
2023-05-11T02:57:47.121Z,12.91
2023-05-11T02:59:07.515Z,12.87
2023-05-11T02:59:46.943Z,13.03
2023-05-11T03:00:46.585Z,12.97
2023-05-11T03:01:47.916Z,12.97
2023-05-11T03:03:01.741Z,12.93
2023-05-11T03:03:53.904Z,12.93
2023-05-11T03:04:47.458Z,12.86
2023-05-11T03:05:46.930Z,12.94
2023-05-11T03:06:45.922Z,12.86
2023-05-11T03:07:48.236Z,12.90
2023-05-11T03:08:45.873Z,12.93
2023-05-11T03:09:45.962Z,12.95
2023-05-11T03:10:46.188Z,12.93
2023-05-11T03:11:48.077Z,12.90
2023-05-11T03:12:45.926Z,12.86
2023-05-11T03:13:46.147Z,12.94
2023-05-11T03:14:46.765Z,12.90
2023-05-11T03:15:45.969Z,12.91
2023-05-11T03:16:46.024Z,12.98
2023-05-11T03:17:47.921Z,12.97
2023-05-11T03:18:45.882Z,12.93
2023-05-11T03:19:46.070Z,12.95
2023-05-11T03:20:47.111Z,12.87
2023-05-11T03:21:48.063Z,12.97
2023-05-11T03:23:20.708Z,13.03
2023-05-11T03:24:52.251Z,13.05
2023-05-11T03:25:29.169Z,13.03
2023-05-11T03:25:59.602Z,13.05
2023-05-11T03:26:59.432Z,12.93
2023-05-11T03:32:29.938Z,12.68
2023-05-11T03:33:29.718Z,12.65
2023-05-11T03:34:31.073Z,12.62
2023-05-11T03:35:31.663Z,12.58
2023-05-11T03:36:31.528Z,12.58
2023-05-11T03:37:30.757Z,12.46
2023-05-11T03:38:31.022Z,12.55
2023-05-11T03:39:30.600Z,12.47
2023-05-11T03:40:30.989Z,12.55
2023-05-11T03:41:30.699Z,12.60
2023-05-11T03:42:31.026Z,12.54
2023-05-11T03:43:31.079Z,12.55
2023-05-11T03:44:33.346Z,12.60
2023-05-11T03:45:40.630Z,12.58
2023-05-11T03:46:33.210Z,12.55
2023-05-11T03:47:36.385Z,12.50
2023-05-11T03:48:35.087Z,12.57
2023-05-11T03:49:35.678Z,12.55
2023-05-11T03:50:30.668Z,12.54
2023-05-11T03:51:33.982Z,12.49
2023-05-11T03:52:40.508Z,12.54
2023-05-11T03:53:32.670Z,12.45
2023-05-11T03:55:15.927Z,12.55
2023-05-11T03:56:06.642Z,12.50
2023-05-11T03:57:30.492Z,12.49
2023-05-11T03:58:10.185Z,12.61
2023-05-11T03:58:59.985Z,12.58
2023-05-11T03:59:42.777Z,12.57
2023-05-11T04:00:54.414Z,12.57
2023-05-11T04:01:59.207Z,12.60
2023-05-11T04:03:04.781Z,12.68
2023-05-11T04:03:40.439Z,12.58
2023-05-11T04:04:38.064Z,12.62
2023-05-11T04:05:45.178Z,12.58
2023-05-11T04:06:38.480Z,12.58
2023-05-11T04:07:46.301Z,12.70
2023-05-11T04:08:38.178Z,12.68
2023-05-11T04:09:37.308Z,12.72
2023-05-11T04:10:42.260Z,12.79
2023-05-11T04:11:41.701Z,12.79
2023-05-11T04:12:43.244Z,12.85
2023-05-11T04:13:39.042Z,12.87
2023-05-11T04:14:38.256Z,12.97
2023-05-11T04:15:39.075Z,12.90
2023-05-11T04:16:36.512Z,12.85
2023-05-11T04:17:36.885Z,12.94
2023-05-11T04:18:36.692Z,13.05
2023-05-11T04:19:40.053Z,12.94
2023-05-11T04:20:39.822Z,12.95
2023-05-11T04:21:40.223Z,13.11
2023-05-11T04:23:10.495Z,13.00
2023-05-11T04:23:44.469Z,13.05
2023-05-11T04:24:38.230Z,13.01
2023-05-11T04:25:40.045Z,13.05
2023-05-11T04:26:36.991Z,13.19
2023-05-11T04:27:43.633Z,13.09
2023-05-11T04:28:39.161Z,13.19
2023-05-11T04:29:37.578Z,13.18
2023-05-11T04:30:37.424Z,13.30
2023-05-11T04:31:36.510Z,13.13
2023-05-11T04:32:36.107Z,13.18
2023-05-11T04:33:36.495Z,13.28
2023-05-11T04:34:53.770Z,13.35
2023-05-11T04:35:49.247Z,13.28
2023-05-11T04:36:38.521Z,13.18
2023-05-11T04:37:40.076Z,13.09
2023-05-11T04:38:39.020Z,13.05
2023-05-11T04:39:37.715Z,12.97
2023-05-11T04:40:37.784Z,12.91
2023-05-11T04:41:39.481Z,12.90
2023-05-11T04:42:37.024Z,12.83
2023-05-11T04:43:44.690Z,12.85
2023-05-11T04:44:38.866Z,12.87
2023-05-11T04:45:40.068Z,13.05
2023-05-11T04:46:39.269Z,12.97
2023-05-11T04:47:36.084Z,13.09
2023-05-11T04:48:50.982Z,13.09
2023-05-11T04:49:38.866Z,13.08
2023-05-11T04:50:36.414Z,13.09
2023-05-11T04:51:36.124Z,13.22
2023-05-11T04:52:36.042Z,13.23
2023-05-11T04:53:36.079Z,13.04
2023-05-11T04:54:36.087Z,13.05
2023-05-11T04:55:36.150Z,13.11
2023-05-11T04:56:36.391Z,13.08
2023-05-11T04:57:37.055Z,13.05
2023-05-11T05:04:06.176Z,13.13
2023-05-11T05:16:13.282Z,13.28
2023-05-11T05:18:50.727Z,13.16
2023-05-11T05:28:23.928Z,13.41
2023-05-11T05:29:40.208Z,13.46
2023-05-11T05:30:44.467Z,13.47
2023-05-11T05:31:49.317Z,13.53
2023-05-11T05:32:27.152Z,13.54
2023-05-11T05:36:18.194Z,13.33
2023-05-11T05:37:24.654Z,13.30
2023-05-11T05:50:49.518Z,13.81
2023-05-11T05:52:49.978Z,13.85
2023-05-11T05:53:42.759Z,13.90
2023-05-11T05:56:30.528Z,13.90
2023-05-11T05:57:27.155Z,13.97
2023-05-11T05:57:44.105Z,14.04
2023-05-11T05:59:02.845Z,14.08
2023-05-11T05:59:38.561Z,14.07
2023-05-11T06:00:36.797Z,14.11
2023-05-11T06:04:46.337Z,14.12
2023-05-11T06:05:50.808Z,13.96
2023-05-11T06:06:47.819Z,13.90
2023-05-11T06:07:58.002Z,13.75
2023-05-11T06:08:48.340Z,13.72
2023-05-11T06:09:47.348Z,13.70
2023-05-11T06:10:47.259Z,13.60
2023-05-11T06:11:47.361Z,13.67
2023-05-11T06:12:47.265Z,13.70
2023-05-11T06:13:47.257Z,13.72
2023-05-11T06:14:48.284Z,13.83
2023-05-11T06:15:48.653Z,13.87
2023-05-11T06:17:16.528Z,13.90
2023-05-11T06:55:39.669Z,14.04
2023-05-11T06:57:14.433Z,14.11
2023-05-11T07:02:08.524Z,14.33
2023-05-11T07:03:08.648Z,14.32
2023-05-11T07:04:08.485Z,14.55
2023-05-11T07:05:09.196Z,14.60
2023-05-11T07:06:08.526Z,14.69
2023-05-11T07:07:08.398Z,14.68
2023-05-11T07:08:08.438Z,14.69
2023-05-11T07:09:08.383Z,14.72
2023-05-11T07:10:08.366Z,14.68
2023-05-11T07:11:08.388Z,14.82
2023-05-11T07:12:10.758Z,14.68
2023-05-11T07:13:10.314Z,14.69
2023-05-11T07:14:09.999Z,14.81
2023-05-11T07:15:10.076Z,14.66
2023-05-11T07:16:10.360Z,14.48
2023-05-11T07:17:10.179Z,14.55
2023-05-11T07:18:09.995Z,14.62
2023-05-11T07:19:10.056Z,14.63
2023-05-11T07:20:12.993Z,14.66
2023-05-11T07:21:14.649Z,14.69
2023-05-11T07:22:11.838Z,14.69
2023-05-11T07:23:10.914Z,14.68
2023-05-11T07:24:11.245Z,14.78
2023-05-11T07:25:10.831Z,14.85
2023-05-11T07:26:11.778Z,14.77
2023-05-11T07:27:11.126Z,14.84
2023-05-11T07:28:11.546Z,14.88
2023-05-11T07:29:11.586Z,15.15
2023-05-11T07:30:19.564Z,15.06
2023-05-11T07:31:11.359Z,15.14
2023-05-11T07:32:09.788Z,15.17
2023-05-11T07:33:10.428Z,15.15
2023-05-11T07:34:10.347Z,15.15
2023-05-11T07:35:12.937Z,15.19
2023-05-11T07:36:10.850Z,15.33
2023-05-11T07:37:11.408Z,15.49
2023-05-11T07:38:09.820Z,15.40
2023-05-11T07:39:09.970Z,15.55
2023-05-11T07:40:10.589Z,15.65
2023-05-11T07:41:13.015Z,15.58
2023-05-11T07:42:25.159Z,15.49
2023-05-11T07:43:36.992Z,15.61
2023-05-11T07:44:09.753Z,15.59
2023-05-11T07:45:09.520Z,15.58
2023-05-11T07:46:09.453Z,15.52
2023-05-11T07:47:09.257Z,15.52
2023-05-11T07:48:43.332Z,15.55
2023-05-11T07:49:18.648Z,15.61
2023-05-11T07:50:13.530Z,15.62
2023-05-11T07:51:09.247Z,15.44
2023-05-11T07:52:09.307Z,15.44
2023-05-11T07:53:10.873Z,15.51
2023-05-11T07:54:10.554Z,15.44
2023-05-11T07:55:09.240Z,15.44
2023-05-11T07:56:09.937Z,15.35
2023-05-11T07:57:09.179Z,15.47
2023-05-11T07:58:09.250Z,15.44
2023-05-11T07:59:09.149Z,15.44
2023-05-11T08:00:41.867Z,15.46
2023-05-11T08:01:09.372Z,15.47
2023-05-11T08:02:43.074Z,15.31
2023-05-11T08:03:11.041Z,15.36
2023-05-11T08:04:12.566Z,15.17
2023-05-11T08:05:10.916Z,15.03
2023-05-11T08:06:09.942Z,15.02
2023-05-11T08:07:09.170Z,15.10
2023-05-11T08:08:42.612Z,15.29
2023-05-11T08:09:41.838Z,15.29
2023-05-11T08:10:10.488Z,15.36
2023-05-11T08:11:09.202Z,15.39
2023-05-11T08:12:09.544Z,15.44
2023-05-11T08:13:15.167Z,15.44
2023-05-11T08:14:09.700Z,15.52
2023-05-11T08:15:12.820Z,15.59
2023-05-11T08:16:17.216Z,15.72
2023-05-11T08:17:12.283Z,15.76
2023-05-11T08:18:09.180Z,15.83
2023-05-11T08:19:09.152Z,15.84
2023-05-11T08:20:08.856Z,16.02
2023-05-11T08:21:10.763Z,16.05
2023-05-11T08:22:10.546Z,16.05
2023-05-11T08:23:08.946Z,15.98
2023-05-11T08:24:08.986Z,16.01
2023-05-11T08:25:09.031Z,16.04
2023-05-11T08:26:08.952Z,16.09
2023-05-11T08:27:09.331Z,16.16
2023-05-11T08:28:08.947Z,16.12
2023-05-11T08:29:10.209Z,16.02
2023-05-11T08:30:11.768Z,15.95
2023-05-11T08:31:09.587Z,16.10
2023-05-11T08:32:09.265Z,16.08
2023-05-11T08:33:29.072Z,16.05
2023-05-11T08:34:18.143Z,16.02
2023-05-11T08:40:03.919Z,15.79
2023-05-11T08:41:20.566Z,15.79
2023-05-11T08:42:09.596Z,15.84
2023-05-11T08:43:09.208Z,15.90
2023-05-11T08:44:06.055Z,15.80
2023-05-11T08:45:05.878Z,16.00
2023-05-11T08:46:06.437Z,15.98
2023-05-11T08:48:06.104Z,15.97
2023-05-11T08:51:47.324Z,16.01
2023-05-11T08:52:47.327Z,15.98
2023-05-11T08:53:47.361Z,15.95
2023-05-11T08:54:47.411Z,16.02
2023-05-11T08:55:47.371Z,15.88
2023-05-11T08:56:47.300Z,15.98
2023-05-11T08:57:47.115Z,16.04
2023-05-11T08:58:47.308Z,16.12
2023-05-11T08:59:47.123Z,16.08
2023-05-11T09:00:47.574Z,15.97
2023-05-11T09:01:48.329Z,15.91
2023-05-11T09:02:48.968Z,15.98
2023-05-11T09:03:48.486Z,15.92
2023-05-11T09:04:49.371Z,15.90
2023-05-11T09:06:35.091Z,15.82
2023-05-11T09:06:53.278Z,15.91
2023-05-11T09:07:49.396Z,15.97
2023-05-11T09:09:03.097Z,15.94
2023-05-11T09:23:53.375Z,16.12
2023-05-11T09:28:08.899Z,16.13
2023-05-11T09:29:42.414Z,16.20
2023-05-11T09:31:01.497Z,16.23
2023-05-11T09:31:30.323Z,16.35
2023-05-11T09:32:14.126Z,16.38
2023-05-11T09:35:59.226Z,16.29
2023-05-11T09:37:58.864Z,16.05
2023-05-11T09:38:27.115Z,16.02
2023-05-11T09:42:14.728Z,16.51
2023-05-11T09:43:16.006Z,16.72
2023-05-11T09:44:14.418Z,16.69
2023-05-11T09:45:14.289Z,16.79
2023-05-11T09:46:14.521Z,16.74
2023-05-11T09:47:15.444Z,16.79
2023-05-11T09:48:17.446Z,16.71
2023-05-11T09:49:16.421Z,16.79
2023-05-11T09:50:29.004Z,16.75
2023-05-11T09:51:21.554Z,16.60
2023-05-11T09:52:56.179Z,16.47
2023-05-11T09:53:30.772Z,16.53
2023-05-11T09:54:34.366Z,16.49
2023-05-11T09:55:17.816Z,16.64
2023-05-11T09:56:21.113Z,16.75
2023-05-11T09:57:16.984Z,16.76
2023-05-11T09:58:20.532Z,16.61
2023-05-11T09:59:54.211Z,16.68
2023-05-11T10:00:17.613Z,16.69
2023-05-11T10:01:15.388Z,16.69
2023-05-11T10:02:42.587Z,16.56
2023-05-11T10:03:18.155Z,16.75
2023-05-11T10:04:56.232Z,16.79
2023-05-11T10:06:20.684Z,16.68
2023-05-11T10:08:24.611Z,16.33
2023-05-11T10:08:28.973Z,16.43
2023-05-11T10:09:28.035Z,16.42
2023-05-11T10:10:54.410Z,16.61
2023-05-11T10:11:30.796Z,16.68
2023-05-11T10:15:34.205Z,16.93
2023-05-11T10:23:10.461Z,16.58
2023-05-11T10:24:22.467Z,16.60
2023-05-11T10:28:51.481Z,16.72
2023-05-11T10:30:09.785Z,16.90
2023-05-11T10:31:10.993Z,16.93
2023-05-11T10:38:41.446Z,16.81
2023-05-11T10:42:56.033Z,17.01
2023-05-11T10:44:05.055Z,16.99
2023-05-11T10:44:56.600Z,17.02
2023-05-11T10:46:37.752Z,17.06
2023-05-11T10:47:08.378Z,17.05
2023-05-11T10:48:03.481Z,17.08
2023-05-11T10:49:40.842Z,17.06
2023-05-11T10:50:24.034Z,17.04
2023-05-11T10:50:57.843Z,17.04
2023-05-11T10:54:53.374Z,16.96
2023-05-11T10:58:50.051Z,16.87
2023-05-11T10:59:50.522Z,16.90
2023-05-11T11:00:58.229Z,16.89
2023-05-11T11:02:16.826Z,16.89
2023-05-11T11:03:24.649Z,16.90
2023-05-11T11:10:32.436Z,16.94
2023-05-11T11:11:37.262Z,16.93
2023-05-11T11:12:38.035Z,16.96
2023-05-11T11:17:09.198Z,16.91
2023-05-11T11:19:32.709Z,16.83
2023-05-11T11:19:44.519Z,16.97
2023-05-11T11:21:56.298Z,16.90
2023-05-11T11:22:54.394Z,17.01
2023-05-11T11:23:08.099Z,16.96
2023-05-11T11:24:46.587Z,16.99
2023-05-11T11:25:11.240Z,17.04
2023-05-11T11:26:21.310Z,16.96
2023-05-11T11:27:27.700Z,16.94
2023-05-11T11:28:13.261Z,16.97
2023-05-11T11:29:51.918Z,17.01
2023-05-11T11:32:52.215Z,16.81
2023-05-11T11:34:12.959Z,16.83
2023-05-11T11:35:40.013Z,16.76
2023-05-11T11:37:16.437Z,16.65
2023-05-11T11:37:36.220Z,16.50
2023-05-11T11:39:03.554Z,16.38
2023-05-11T11:39:36.328Z,16.33
2023-05-11T11:40:55.109Z,16.36
2023-05-11T11:42:05.609Z,16.24
2023-05-11T11:42:23.149Z,16.21
2023-05-11T11:44:09.892Z,16.05
2023-05-11T11:44:28.800Z,16.01
2023-05-11T11:45:51.217Z,15.92
2023-05-11T11:46:42.221Z,15.88
2023-05-11T11:47:57.909Z,15.80
2023-05-11T11:48:44.488Z,15.73
2023-05-11T11:49:29.870Z,15.79
2023-05-11T11:50:29.357Z,15.75
2023-05-11T11:51:53.485Z,15.75
2023-05-11T11:52:53.059Z,15.76
2023-05-11T11:53:20.695Z,15.92
2023-05-11T11:54:57.408Z,15.92
2023-05-11T11:55:46.261Z,15.77
2023-05-11T11:56:53.465Z,15.80
2023-05-11T11:57:40.648Z,15.83
2023-05-11T11:58:56.238Z,15.84
2023-05-11T11:59:20.335Z,15.77
2023-05-11T12:00:59.249Z,15.88
2023-05-11T12:01:22.274Z,15.94
2023-05-11T12:02:59.148Z,15.80
2023-05-11T12:03:20.890Z,15.94
2023-05-11T12:04:20.535Z,15.95
2023-05-11T12:05:53.196Z,15.98
2023-05-11T12:06:26.490Z,16.02
2023-05-11T12:07:55.441Z,16.05
2023-05-11T12:08:51.011Z,16.05
2023-05-11T12:09:26.701Z,16.10
2023-05-11T12:10:52.813Z,16.09
2023-05-11T12:11:49.314Z,16.23
2023-05-11T12:12:22.128Z,16.21
2023-05-11T12:13:58.785Z,16.23
2023-05-11T12:14:20.303Z,16.24
2023-05-11T12:15:55.959Z,16.38
2023-05-11T12:16:50.905Z,16.39
2023-05-11T12:17:31.918Z,16.49
2023-05-11T12:18:56.782Z,16.47
2023-05-11T12:19:20.168Z,16.49
2023-05-11T12:20:57.908Z,16.47
2023-05-11T12:21:25.922Z,16.47
2023-05-11T12:22:54.178Z,16.49
2023-05-11T12:23:56.435Z,16.39
2023-05-11T12:24:54.754Z,16.35
2023-05-11T12:25:25.118Z,16.38
2023-05-11T12:26:54.382Z,16.39
2023-05-11T12:29:25.411Z,16.61
2023-05-11T12:30:31.075Z,16.65
2023-05-11T12:32:57.723Z,16.68
2023-05-11T12:33:54.946Z,16.68
2023-05-11T12:34:55.784Z,16.74
2023-05-11T12:35:55.741Z,16.72
2023-05-11T12:37:10.179Z,16.75
2023-05-11T12:37:54.994Z,16.75
2023-05-11T12:40:22.742Z,16.69
2023-05-11T12:41:25.688Z,16.60
2023-05-11T12:42:22.877Z,16.57
2023-05-11T12:43:30.668Z,16.64
2023-05-11T12:44:32.465Z,16.57
2023-05-11T12:45:27.323Z,16.68
2023-05-11T12:46:56.616Z,16.64
2023-05-11T12:47:31.890Z,16.61
2023-05-11T12:50:23.032Z,16.71
2023-05-11T12:51:41.515Z,16.72
2023-05-11T12:53:50.860Z,16.84
2023-05-11T12:55:03.319Z,16.86
2023-05-11T12:55:50.866Z,16.93
2023-05-11T12:56:52.465Z,16.89
2023-05-11T12:58:06.921Z,16.89
2023-05-11T12:58:50.976Z,16.96
2023-05-11T13:01:19.115Z,16.69
2023-05-11T13:02:29.140Z,16.78
2023-05-11T13:03:28.815Z,16.60
2023-05-11T13:04:19.362Z,16.66
2023-05-11T13:05:29.223Z,16.60
2023-05-11T13:06:54.304Z,16.54
2023-05-11T13:07:26.930Z,16.51
2023-05-11T13:08:20.775Z,16.41
2023-05-11T13:11:25.939Z,16.24
2023-05-11T13:12:34.664Z,16.20
2023-05-11T13:14:13.094Z,16.13
2023-05-11T13:14:27.242Z,16.05
2023-05-11T13:16:02.465Z,16.02
2023-05-11T13:16:29.508Z,16.04
2023-05-11T13:18:01.906Z,15.94
2023-05-11T13:18:30.528Z,16.01
2023-05-11T13:21:24.233Z,15.97
2023-05-11T13:22:28.128Z,16.02
2023-05-11T13:23:24.297Z,16.01
2023-05-11T13:25:02.247Z,15.91
2023-05-11T13:25:28.764Z,15.90
2023-05-11T13:27:01.955Z,15.88
2023-05-11T13:27:29.245Z,15.90
2023-05-11T13:29:09.369Z,15.97
2023-05-11T13:29:30.118Z,15.94
2023-05-11T13:30:27.559Z,15.92
2023-05-11T13:31:30.271Z,16.01
2023-05-11T13:33:02.045Z,16.02
2023-05-11T13:33:27.064Z,15.91
2023-05-11T13:35:09.870Z,15.91
2023-05-11T13:35:37.560Z,15.80
2023-05-11T13:36:32.618Z,15.90
2023-05-11T13:37:58.943Z,15.86
2023-05-11T13:39:01.453Z,15.79
2023-05-11T13:39:28.641Z,15.84
2023-05-11T13:40:55.945Z,15.80
2023-05-11T13:43:46.430Z,15.98
2023-05-11T13:47:44.697Z,16.00
2023-05-11T13:49:22.342Z,15.97
2023-05-11T13:57:00.729Z,16.10
2023-05-11T13:58:40.041Z,16.08
2023-05-11T13:59:12.735Z,16.08
2023-05-11T14:04:01.369Z,16.08
2023-05-11T14:05:42.615Z,16.02
2023-05-11T14:06:38.456Z,16.10
2023-05-11T14:13:38.194Z,15.98
2023-05-11T14:14:55.411Z,16.10
2023-05-11T14:21:09.167Z,15.77
2023-05-11T14:22:15.199Z,15.94
2023-05-11T14:23:10.208Z,15.91
2023-05-11T14:34:53.367Z,15.54
2023-05-11T14:49:46.874Z,15.67
2023-05-11T15:00:07.867Z,15.92
2023-05-11T15:09:00.889Z,15.92
2023-05-11T15:15:30.035Z,15.84
2023-05-11T15:28:07.172Z,15.79
2023-05-11T15:29:46.942Z,15.83
2023-05-11T15:31:00.520Z,15.76
2023-05-11T15:31:16.164Z,15.75
2023-05-11T15:32:43.584Z,15.58
